createdAt,value
2022-12-11T00:00:47.814Z,98436.47
2022-12-11T00:03:16.581Z,98430.66
2022-12-11T00:05:43.934Z,98430.75
2022-12-11T00:08:12.339Z,98437.97
2022-12-11T00:10:39.175Z,98430.34
2022-12-11T00:13:05.801Z,98441.81
2022-12-11T00:15:32.412Z,98439.88
2022-12-11T00:17:59.005Z,98438.59
2022-12-11T00:20:25.479Z,98437.22
2022-12-11T00:22:52.064Z,98438.38
2022-12-11T00:25:18.689Z,98441.00
2022-12-11T00:27:46.904Z,98438.25
2022-12-11T00:30:14.260Z,98447.19
2022-12-11T00:32:40.943Z,98441.81
2022-12-11T00:35:08.072Z,98438.47
2022-12-11T00:37:34.977Z,98442.75
2022-12-11T00:40:01.655Z,98452.88
2022-12-11T00:42:28.197Z,98456.69
2022-12-11T00:44:54.781Z,98456.84
2022-12-11T00:47:21.402Z,98450.81
2022-12-11T00:49:49.976Z,98459.75
2022-12-11T00:52:17.196Z,98461.06
2022-12-11T00:54:43.824Z,98456.69
2022-12-11T00:57:10.316Z,98452.41
2022-12-11T00:59:36.834Z,98450.13
2022-12-11T01:02:03.511Z,98449.59
2022-12-11T01:04:30.075Z,98454.59
2022-12-11T01:06:56.634Z,98456.03
2022-12-11T01:09:23.252Z,98450.69
2022-12-11T01:11:49.822Z,98458.97
2022-12-11T01:14:16.310Z,98458.69
2022-12-11T01:16:42.931Z,98450.75
2022-12-11T01:19:09.406Z,98471.09
2022-12-11T01:21:35.991Z,98450.69
2022-12-11T01:24:02.691Z,98450.16
2022-12-11T01:26:29.336Z,98442.53
2022-12-11T01:28:55.807Z,98445.94
2022-12-11T01:31:22.405Z,98447.56
2022-12-11T01:33:48.973Z,98442.47
2022-12-11T01:36:19.229Z,98450.53
2022-12-11T01:38:47.486Z,98454.00
2022-12-11T01:41:15.889Z,98444.63
2022-12-11T01:44:04.946Z,98474.41
2022-12-11T01:46:33.495Z,98455.63
2022-12-11T01:49:02.235Z,98458.41
2022-12-11T01:51:31.547Z,98457.59
2022-12-11T01:54:02.020Z,98452.75
2022-12-11T01:56:31.006Z,98456.97
2022-12-11T01:59:01.862Z,98470.72
2022-12-11T02:01:35.853Z,98470.38
2022-12-11T02:04:02.936Z,98466.81
2022-12-11T02:06:32.245Z,98478.34
2022-12-11T02:08:59.522Z,98480.59
2022-12-11T02:11:37.149Z,98471.66
2022-12-11T02:14:08.361Z,98477.19
2022-12-11T02:17:12.099Z,98472.34
2022-12-11T02:20:02.786Z,98469.13
2022-12-11T02:22:52.235Z,98468.88
2022-12-11T02:25:31.991Z,98485.06
2022-12-11T02:28:16.936Z,98488.25
2022-12-11T02:30:51.384Z,98495.75
2022-12-11T02:33:23.533Z,98495.53
2022-12-11T02:35:50.752Z,98491.31
2022-12-11T02:38:24.945Z,98495.47
2022-12-11T02:40:55.573Z,98494.47
2022-12-11T02:43:23.427Z,98490.16
2022-12-11T02:45:51.442Z,98490.34
2022-12-11T02:48:20.983Z,98489.47
2022-12-11T02:50:50.322Z,98489.72
2022-12-11T02:53:20.815Z,98490.09
2022-12-11T02:55:51.251Z,98486.47
2022-12-11T02:58:22.558Z,98495.19
2022-12-11T03:00:49.302Z,98485.31
2022-12-11T03:03:16.329Z,98490.44
2022-12-11T03:05:43.091Z,98493.75
2022-12-11T03:08:10.288Z,98494.66
2022-12-11T03:10:37.975Z,98493.03
2022-12-11T03:13:05.094Z,98482.47
2022-12-11T03:16:00.377Z,98500.19
2022-12-11T03:18:58.916Z,98499.66
2022-12-11T03:21:38.429Z,98510.28
2022-12-11T03:24:11.709Z,98505.66
2022-12-11T03:26:54.495Z,98508.34
2022-12-11T03:29:39.258Z,98506.38
2022-12-11T03:32:19.598Z,98519.09
2022-12-11T03:35:02.875Z,98518.28
2022-12-11T03:37:34.704Z,98513.56
2022-12-11T03:40:07.321Z,98513.22
2022-12-11T03:42:35.136Z,98512.84
2022-12-11T03:45:04.580Z,98511.59
2022-12-11T03:47:32.405Z,98521.28
2022-12-11T03:50:00.042Z,98531.13
2022-12-11T03:52:28.937Z,98528.34
2022-12-11T03:54:59.560Z,98540.63
2022-12-11T03:57:30.997Z,98533.66
2022-12-11T03:59:58.426Z,98531.88
2022-12-11T04:02:25.056Z,98530.25
2022-12-11T04:04:51.704Z,98531.75
2022-12-11T04:07:18.536Z,98533.44
2022-12-11T04:09:44.979Z,98546.53
2022-12-11T04:12:11.775Z,98539.91
2022-12-11T04:14:38.279Z,98545.00
2022-12-11T04:17:05.151Z,98541.03
2022-12-11T04:19:31.812Z,98545.41
2022-12-11T04:21:58.334Z,98539.34
2022-12-11T04:24:24.887Z,98543.66
2022-12-11T04:26:51.510Z,98538.47
2022-12-11T04:29:17.985Z,98550.63
2022-12-11T04:31:44.469Z,98556.91
2022-12-11T04:34:11.108Z,98555.66
2022-12-11T04:36:37.983Z,98561.53
2022-12-11T04:39:05.783Z,98566.28
2022-12-11T04:41:32.394Z,98570.72
2022-12-11T04:43:58.943Z,98573.28
2022-12-11T04:46:25.629Z,98567.72
2022-12-11T04:48:57.407Z,98571.22
2022-12-11T04:51:25.054Z,98572.19
2022-12-11T04:53:51.622Z,98569.25
2022-12-11T04:56:18.192Z,98572.66
2022-12-11T04:58:45.614Z,98573.53
2022-12-11T05:01:18.559Z,98570.59
2022-12-11T05:03:46.226Z,98572.03
2022-12-11T05:06:13.202Z,98577.59
2022-12-11T05:08:42.302Z,98583.34
2022-12-11T05:11:11.770Z,98588.09
2022-12-11T05:13:38.657Z,98585.66
2022-12-11T05:16:06.607Z,98586.75
2022-12-11T05:18:33.480Z,98588.19
2022-12-11T05:21:02.897Z,98586.69
2022-12-11T05:23:30.224Z,98584.03
2022-12-11T05:25:59.977Z,98586.44
2022-12-11T05:28:29.180Z,98594.75
2022-12-11T05:31:00.207Z,98593.91
2022-12-11T05:33:28.553Z,98599.38
2022-12-11T05:35:55.449Z,98590.59
2022-12-11T05:38:22.112Z,98596.69
2022-12-11T05:40:57.756Z,98600.34
2022-12-11T05:43:24.847Z,98605.81
2022-12-11T05:45:51.397Z,98609.59
2022-12-11T05:48:18.025Z,98617.09
2022-12-11T05:50:44.610Z,98621.41
2022-12-11T05:53:11.308Z,98607.78
2022-12-11T05:55:37.858Z,98624.00
2022-12-11T05:58:04.379Z,98616.84
2022-12-11T06:00:35.877Z,98619.97
2022-12-11T06:03:02.925Z,98613.34
2022-12-11T06:05:29.532Z,98619.28
2022-12-11T06:07:56.015Z,98628.84
2022-12-11T06:10:22.767Z,98646.09
2022-12-11T06:12:49.371Z,98638.03
2022-12-11T06:15:15.855Z,98632.13
2022-12-11T06:17:42.489Z,98631.44
2022-12-11T06:20:09.191Z,98636.41
2022-12-11T06:22:35.694Z,98629.91
2022-12-11T06:25:02.247Z,98632.34
2022-12-11T06:27:28.716Z,98637.19
2022-12-11T06:29:55.238Z,98629.22
2022-12-11T06:32:21.958Z,98631.81
2022-12-11T06:34:48.462Z,98633.19
2022-12-11T06:37:14.991Z,98628.59
2022-12-11T06:39:41.621Z,98634.78
2022-12-11T06:42:08.086Z,98644.47
2022-12-11T06:44:34.545Z,98651.06
2022-12-11T06:47:01.103Z,98651.16
2022-12-11T06:49:27.704Z,98648.13
2022-12-11T06:51:54.322Z,98642.69
2022-12-11T06:54:20.903Z,98653.16
2022-12-11T06:56:47.400Z,98656.78
2022-12-11T06:59:13.916Z,98664.13
2022-12-11T07:01:40.492Z,98673.09
2022-12-11T07:04:06.991Z,98680.44
2022-12-11T07:06:33.509Z,98681.75
2022-12-11T07:09:00.590Z,98686.91
2022-12-11T07:11:27.814Z,98681.66
2022-12-11T07:13:54.419Z,98683.66
2022-12-11T07:16:23.142Z,98681.06
2022-12-11T07:18:51.368Z,98698.69
2022-12-11T07:21:20.303Z,98691.03
2022-12-11T07:23:47.818Z,98693.22
2022-12-11T07:26:16.921Z,98697.19
2022-12-11T07:28:44.156Z,98696.66
2022-12-11T07:31:16.648Z,98700.00
2022-12-11T07:33:43.616Z,98705.81
2022-12-11T07:36:12.395Z,98700.63
2022-12-11T07:38:39.399Z,98706.50
2022-12-11T07:41:09.492Z,98708.41
2022-12-11T07:43:36.672Z,98717.88
2022-12-11T07:46:09.489Z,98713.13
2022-12-11T07:48:37.171Z,98703.31
2022-12-11T07:51:19.257Z,98704.47
2022-12-11T07:53:48.137Z,98702.03
2022-12-11T07:56:15.467Z,98700.19
2022-12-11T07:58:42.418Z,98705.59
2022-12-11T08:01:26.892Z,98708.72
2022-12-11T08:03:54.702Z,98702.94
2022-12-11T08:06:28.923Z,98699.06
2022-12-11T08:08:57.630Z,98702.84
2022-12-11T08:11:24.888Z,98710.56
2022-12-11T08:13:51.722Z,98701.78
2022-12-11T08:16:19.002Z,98705.56
2022-12-11T08:18:46.925Z,98704.56
2022-12-11T08:21:19.545Z,98710.16
2022-12-11T08:23:46.457Z,98712.38
2022-12-11T08:26:19.502Z,98715.88
2022-12-11T08:28:46.283Z,98718.13
2022-12-11T08:31:15.041Z,98711.50
2022-12-11T08:33:42.341Z,98715.00
2022-12-11T08:36:11.734Z,98710.88
2022-12-11T08:38:38.396Z,98713.19
2022-12-11T08:41:16.457Z,98720.00
2022-12-11T08:43:43.747Z,98718.91
2022-12-11T08:46:11.939Z,98722.34
2022-12-11T08:48:40.292Z,98721.34
2022-12-11T08:51:09.014Z,98714.53
2022-12-11T08:53:35.567Z,98717.84
2022-12-11T08:56:07.995Z,98722.34
2022-12-11T08:58:34.506Z,98724.41
2022-12-11T09:01:05.504Z,98721.69
2022-12-11T09:03:32.813Z,98728.59
2022-12-11T09:05:59.325Z,98721.34
2022-12-11T09:08:26.401Z,98723.41
2022-12-11T09:10:53.083Z,98726.72
2022-12-11T09:13:19.630Z,98726.78
2022-12-11T09:15:46.167Z,98726.25
2022-12-11T09:18:12.931Z,98728.78
2022-12-11T09:20:39.478Z,98728.84
2022-12-11T09:23:05.993Z,98723.47
2022-12-11T09:25:32.540Z,98729.13
2022-12-11T09:27:59.063Z,98728.06
2022-12-11T09:30:25.599Z,98726.00
2022-12-11T09:32:52.154Z,98733.19
2022-12-11T09:35:18.618Z,98735.28
2022-12-11T09:37:45.091Z,98744.41
2022-12-11T09:40:12.423Z,98742.78
2022-12-11T09:42:57.359Z,98745.63
2022-12-11T09:45:24.101Z,98750.66
2022-12-11T09:47:53.440Z,98765.66
2022-12-11T09:50:33.883Z,98750.88
2022-12-11T09:53:00.348Z,98749.91
2022-12-11T09:55:39.639Z,98745.00
2022-12-11T09:58:27.859Z,98750.00
2022-12-11T10:01:13.066Z,98749.78
2022-12-11T10:03:45.476Z,98744.69
2022-12-11T10:06:22.326Z,98733.88
2022-12-11T10:09:18.473Z,98735.50
2022-12-11T10:12:00.370Z,98739.88
2022-12-11T10:15:03.887Z,98748.84
2022-12-11T10:17:37.143Z,98745.91
2022-12-11T10:20:24.127Z,98743.13
2022-12-11T10:22:52.731Z,98729.22
2022-12-11T10:25:29.057Z,98737.94
2022-12-11T10:27:56.167Z,98734.72
2022-12-11T10:30:25.404Z,98730.16
2022-12-11T10:33:27.318Z,98724.44
2022-12-11T10:35:56.196Z,98715.53
2022-12-11T10:38:29.119Z,98720.84
2022-12-11T10:41:17.877Z,98719.06
2022-12-11T10:43:46.897Z,98721.94
2022-12-11T10:46:20.224Z,98714.50
2022-12-11T10:48:52.031Z,98734.72
2022-12-11T10:51:19.512Z,98715.19
2022-12-11T10:53:55.140Z,98714.03
2022-12-11T10:56:30.513Z,98716.59
2022-12-11T10:58:59.137Z,98719.72
2022-12-11T11:01:32.549Z,98720.66
2022-12-11T11:04:07.080Z,98715.47
2022-12-11T11:06:33.932Z,98719.94
2022-12-11T11:09:02.044Z,98720.72
2022-12-11T11:11:37.877Z,98706.06
2022-12-11T11:14:18.479Z,98709.09
2022-12-11T11:16:47.877Z,98714.41
2022-12-11T11:19:30.559Z,98730.31
2022-12-11T11:22:02.144Z,98730.50
2022-12-11T11:24:33.060Z,98734.84
2022-12-11T11:27:15.212Z,98739.91
2022-12-11T11:29:42.237Z,98742.00
2022-12-11T11:32:19.769Z,98730.69
2022-12-11T11:34:46.395Z,98717.66
2022-12-11T11:37:33.319Z,98718.75
2022-12-11T11:40:11.529Z,98716.63
2022-12-11T11:43:00.898Z,98716.28
2022-12-11T11:45:37.195Z,98711.69
2022-12-11T11:48:35.740Z,98708.75
2022-12-11T11:51:13.037Z,98710.72
2022-12-11T11:53:39.679Z,98702.28
2022-12-11T11:56:27.853Z,98701.34
2022-12-11T11:59:00.002Z,98702.28
2022-12-11T12:01:26.697Z,98716.16
2022-12-11T12:03:54.211Z,98717.19
2022-12-11T12:06:29.965Z,98721.75
2022-12-11T12:09:06.644Z,98716.59
2022-12-11T12:11:44.578Z,98714.94
2022-12-11T12:14:51.169Z,98717.88
2022-12-11T12:17:09.644Z,98704.56
2022-12-11T12:20:13.147Z,98713.97
2022-12-11T12:22:46.532Z,98708.63
2022-12-11T12:25:27.032Z,98698.13
2022-12-11T12:28:12.271Z,98704.00
2022-12-11T12:31:05.245Z,98721.38
2022-12-11T12:33:47.115Z,98712.78
2022-12-11T12:36:30.197Z,98715.25
2022-12-11T12:38:59.643Z,98714.25
2022-12-11T12:42:01.351Z,98708.13
2022-12-11T12:44:47.179Z,98720.31
2022-12-11T12:47:17.471Z,98712.53
2022-12-11T12:49:49.379Z,98703.88
2022-12-11T12:52:20.887Z,98699.13
2022-12-11T12:54:51.007Z,98705.94
2022-12-11T12:57:17.920Z,98700.78
2022-12-11T12:59:54.566Z,98697.72
2022-12-11T13:02:21.156Z,98694.16
2022-12-11T13:04:58.325Z,98691.88
2022-12-11T13:07:30.625Z,98700.31
2022-12-11T13:10:21.830Z,98687.81
2022-12-11T13:12:48.714Z,98687.00
2022-12-11T13:15:29.692Z,98681.16
2022-12-11T13:17:56.958Z,98685.22
2022-12-11T13:20:26.333Z,98683.13
2022-12-11T13:23:18.785Z,98685.22
2022-12-11T13:25:58.217Z,98686.00
2022-12-11T13:28:29.361Z,98668.34
2022-12-11T13:31:07.838Z,98671.72
2022-12-11T13:33:41.390Z,98668.41
2022-12-11T13:36:16.668Z,98663.03
2022-12-11T13:38:55.570Z,98654.97
2022-12-11T13:41:23.142Z,98649.59
2022-12-11T13:43:50.623Z,98647.91
2022-12-11T13:46:24.825Z,98648.53
2022-12-11T13:48:59.816Z,98656.03
2022-12-11T13:51:29.088Z,98652.91
2022-12-11T13:54:17.530Z,98644.16
2022-12-11T13:57:18.283Z,98650.19
2022-12-11T13:59:55.936Z,98650.97
2022-12-11T14:02:29.379Z,98657.56
2022-12-11T14:04:59.202Z,98655.78
2022-12-11T14:07:33.452Z,98661.03
2022-12-11T14:10:15.298Z,98651.97
2022-12-11T14:12:59.419Z,98645.03
2022-12-11T14:15:28.085Z,98639.84
2022-12-11T14:17:55.936Z,98629.69
2022-12-11T14:20:26.210Z,98627.06
2022-12-11T14:22:52.703Z,98637.78
2022-12-11T14:25:25.575Z,98623.78
2022-12-11T14:27:54.931Z,98628.34
2022-12-11T14:30:28.141Z,98628.28
2022-12-11T14:33:02.627Z,98622.94
2022-12-11T14:35:39.337Z,98610.94
2022-12-11T14:38:35.792Z,98620.22
2022-12-11T14:41:13.237Z,98633.53
2022-12-11T14:43:49.762Z,98619.28
2022-12-11T14:46:20.293Z,98608.25
2022-12-11T14:49:03.726Z,98614.72
2022-12-11T14:51:35.779Z,98602.22
2022-12-11T14:54:03.052Z,98603.03
2022-12-11T14:56:30.781Z,98599.50
2022-12-11T14:59:03.811Z,98593.03
2022-12-11T15:01:33.663Z,98591.09
2022-12-11T15:04:16.206Z,98591.91
2022-12-11T15:06:45.418Z,98583.59
2022-12-11T15:09:24.973Z,98576.44
2022-12-11T15:11:54.065Z,98567.00
2022-12-11T15:14:22.604Z,98572.25
2022-12-11T15:16:50.519Z,98566.19
2022-12-11T15:19:22.099Z,98572.25
2022-12-11T15:21:49.154Z,98564.25
2022-12-11T15:24:30.626Z,98558.13
2022-12-11T15:26:59.374Z,98594.44
2022-12-11T15:29:39.941Z,98564.81
2022-12-11T15:32:09.488Z,98560.84
2022-12-11T15:34:44.189Z,98560.25
2022-12-11T15:37:18.903Z,98555.88
2022-12-11T15:39:45.511Z,98558.69
2022-12-11T15:42:16.163Z,98550.63
2022-12-11T15:44:42.775Z,98545.44
2022-12-11T15:47:18.579Z,98564.91
2022-12-11T15:49:45.051Z,98556.84
2022-12-11T15:52:11.644Z,98538.16
2022-12-11T15:54:38.326Z,98530.34
2022-12-11T15:57:07.640Z,98530.50
2022-12-11T15:59:34.292Z,98528.59
2022-12-11T16:02:00.971Z,98529.53
2022-12-11T16:04:27.494Z,98521.75
2022-12-11T16:06:54.074Z,98518.47
2022-12-11T16:09:20.724Z,98535.97
2022-12-11T16:11:47.325Z,98527.69
2022-12-11T16:14:13.925Z,98522.31
2022-12-11T16:16:40.521Z,98529.75
2022-12-11T16:19:06.979Z,98509.59
2022-12-11T16:21:33.523Z,98507.63
2022-12-11T16:24:00.125Z,98521.41
2022-12-11T16:26:26.815Z,98517.19
2022-12-11T16:28:53.301Z,98495.63
2022-12-11T16:31:19.996Z,98496.59
2022-12-11T16:33:46.522Z,98505.38
2022-12-11T16:36:15.634Z,98497.66
2022-12-11T16:38:51.459Z,98497.72
2022-12-11T16:41:20.061Z,98493.09
2022-12-11T16:43:46.670Z,98489.41
2022-12-11T16:46:13.254Z,98498.00
2022-12-11T16:48:39.829Z,98493.44
2022-12-11T16:51:06.314Z,98489.53
2022-12-11T16:53:32.887Z,98480.88
2022-12-11T16:55:59.440Z,98481.03
2022-12-11T16:58:26.031Z,98493.56
2022-12-11T17:00:52.601Z,98478.78
2022-12-11T17:03:19.164Z,98482.38
2022-12-11T17:05:45.684Z,98484.44
2022-12-11T17:08:13.799Z,98483.28
2022-12-11T17:10:41.744Z,98483.47
2022-12-11T17:13:08.243Z,98486.41
2022-12-11T17:15:39.877Z,98475.56
2022-12-11T17:18:06.522Z,98475.41
2022-12-11T17:20:33.286Z,98457.59
2022-12-11T17:23:00.859Z,98471.28
2022-12-11T17:25:27.320Z,98470.91
2022-12-11T17:27:55.284Z,98467.09
2022-12-11T17:30:22.731Z,98458.97
2022-12-11T17:32:49.326Z,98453.31
2022-12-11T17:35:15.870Z,98439.88
2022-12-11T17:37:42.358Z,98446.69
2022-12-11T17:40:09.226Z,98437.28
2022-12-11T17:42:35.746Z,98434.50
2022-12-11T17:45:02.411Z,98435.31
2022-12-11T17:47:28.869Z,98441.78
2022-12-11T17:49:55.461Z,98434.09
2022-12-11T17:52:22.020Z,98428.00
2022-12-11T17:54:48.502Z,98428.97
2022-12-11T17:57:15.084Z,98426.56
2022-12-11T17:59:41.680Z,98432.19
2022-12-11T18:02:09.708Z,98438.38
2022-12-11T18:04:38.399Z,98434.63
2022-12-11T18:07:05.871Z,98427.00
2022-12-11T18:09:33.075Z,98416.44
2022-12-11T18:11:59.527Z,98422.53
2022-12-11T18:14:26.115Z,98403.38
2022-12-11T18:16:52.702Z,98400.25
2022-12-11T18:19:19.220Z,98394.88
2022-12-11T18:21:46.387Z,98408.94
2022-12-11T18:24:12.887Z,98384.16
2022-12-11T18:26:39.430Z,98379.31
2022-12-11T18:29:06.756Z,98369.19
2022-12-11T18:31:36.302Z,98375.28
2022-12-11T18:34:05.609Z,98370.28
2022-12-11T18:36:33.510Z,98378.84
2022-12-11T18:39:00.323Z,98391.22
2022-12-11T18:41:26.820Z,98373.94
2022-12-11T18:43:54.946Z,98387.72
2022-12-11T18:46:21.655Z,98388.97
2022-12-11T18:48:48.786Z,98375.00
2022-12-11T18:51:18.889Z,98408.47
2022-12-11T18:53:45.907Z,98380.13
2022-12-11T18:56:17.058Z,98381.47
2022-12-11T18:58:44.515Z,98387.91
2022-12-11T19:01:25.911Z,98366.34
2022-12-11T19:04:02.038Z,98378.41
2022-12-11T19:06:30.425Z,98358.91
2022-12-11T19:09:00.171Z,98365.34
2022-12-11T19:11:29.405Z,98356.75
2022-12-11T19:13:56.688Z,98347.34
2022-12-11T19:16:26.378Z,98369.81
2022-12-11T19:18:53.001Z,98349.06
2022-12-11T19:21:19.631Z,98371.16
2022-12-11T19:23:46.460Z,98357.00
2022-12-11T19:26:15.615Z,98355.47
2022-12-11T19:28:42.390Z,98353.91
2022-12-11T19:31:15.446Z,98365.47
2022-12-11T19:33:43.021Z,98393.44
2022-12-11T19:36:12.314Z,98359.84
2022-12-11T19:38:40.711Z,98363.44
2022-12-11T19:41:10.370Z,98382.28
2022-12-11T19:43:37.023Z,98357.94
2022-12-11T19:46:05.517Z,98367.53
2022-12-11T19:48:32.651Z,98352.47
2022-12-11T19:51:06.268Z,98355.47
2022-12-11T19:53:33.630Z,98345.09
2022-12-11T19:56:00.234Z,98345.72
2022-12-11T19:58:28.082Z,98389.84
2022-12-11T20:00:54.651Z,98360.28
2022-12-11T20:03:21.381Z,98354.97
2022-12-11T20:05:48.017Z,98377.66
2022-12-11T20:08:43.105Z,98351.69
2022-12-11T20:11:14.322Z,98348.72
2022-12-11T20:13:44.020Z,98334.56
2022-12-11T20:16:10.853Z,98359.91
2022-12-11T20:18:37.802Z,98345.13
2022-12-11T20:21:07.274Z,98329.25
2022-12-11T20:23:34.599Z,98332.59
2022-12-11T20:26:12.516Z,98339.03
2022-12-11T20:28:39.836Z,98335.81
2022-12-11T20:31:08.691Z,98347.91
2022-12-11T20:33:35.270Z,98325.94
2022-12-11T20:36:06.154Z,98321.53
2022-12-11T20:38:34.660Z,98313.66
2022-12-11T20:41:01.290Z,98336.78
2022-12-11T20:43:28.226Z,98345.66
2022-12-11T20:45:54.846Z,98305.69
2022-12-11T20:48:21.425Z,98316.88
2022-12-11T20:50:48.190Z,98309.59
2022-12-11T20:53:14.815Z,98293.41
2022-12-11T20:55:42.068Z,98320.91
2022-12-11T20:58:09.433Z,98304.97
2022-12-11T21:00:40.121Z,98316.16
2022-12-11T21:03:06.698Z,98311.06
2022-12-11T21:05:33.394Z,98301.31
2022-12-11T21:07:59.979Z,98300.94
2022-12-11T21:10:26.753Z,98303.28
2022-12-11T21:12:53.570Z,98273.97
2022-12-11T21:15:20.026Z,98280.34
2022-12-11T21:17:46.564Z,98293.06
2022-12-11T21:20:13.194Z,98317.00
2022-12-11T21:22:39.746Z,98285.28
2022-12-11T21:25:06.449Z,98281.22
2022-12-11T21:27:33.205Z,98278.28
2022-12-11T21:30:00.147Z,98288.31
2022-12-11T21:32:26.683Z,98298.72
2022-12-11T21:34:53.319Z,98280.16
2022-12-11T21:37:19.857Z,98279.59
2022-12-11T21:39:46.336Z,98265.13
2022-12-11T21:42:12.923Z,98269.34
2022-12-11T21:47:26.085Z,98267.91
2022-12-11T21:49:53.359Z,98249.72
2022-12-11T21:52:19.906Z,98278.47
2022-12-11T21:54:46.459Z,98235.50
2022-12-11T21:57:12.950Z,98258.44
2022-12-11T21:59:39.555Z,98258.44
2022-12-11T22:02:06.437Z,98255.91
2022-12-11T22:04:33.120Z,98259.50
2022-12-11T22:06:59.583Z,98265.94
2022-12-11T22:09:26.302Z,98241.94
2022-12-11T22:11:58.163Z,98257.16
2022-12-11T22:14:25.609Z,98254.06
2022-12-11T22:16:52.347Z,98273.22
2022-12-11T22:19:18.817Z,98260.34
2022-12-11T22:21:45.249Z,98259.63
2022-12-11T22:24:11.908Z,98240.56
2022-12-11T22:26:39.147Z,98240.63
2022-12-11T22:29:05.744Z,98226.72
2022-12-11T22:31:32.582Z,98234.13
2022-12-11T22:33:59.250Z,98253.22
2022-12-11T22:36:27.083Z,98230.91
2022-12-11T22:38:54.291Z,98255.00
2022-12-11T22:41:29.424Z,98244.00
2022-12-11T22:43:58.100Z,98234.06
2022-12-11T22:46:28.021Z,98227.91
2022-12-11T22:48:55.161Z,98223.88
2022-12-11T22:51:22.243Z,98237.03
2022-12-11T22:53:48.802Z,98222.16
2022-12-11T22:56:15.683Z,98213.81
2022-12-11T22:58:42.531Z,98214.19
2022-12-11T23:01:19.553Z,98204.09
2022-12-11T23:03:46.473Z,98200.53
2022-12-11T23:06:14.904Z,98202.38
2022-12-11T23:08:42.082Z,98192.09
2022-12-11T23:11:24.127Z,98197.09
2022-12-11T23:13:51.158Z,98190.78
2022-12-11T23:16:17.825Z,98168.22
2022-12-11T23:18:44.679Z,98176.88
2022-12-11T23:21:12.419Z,98189.41
2022-12-11T23:23:39.252Z,98197.81
2022-12-11T23:26:08.526Z,98209.00
2022-12-11T23:28:35.067Z,98212.59
2022-12-11T23:31:01.749Z,98173.94
2022-12-11T23:33:28.422Z,98199.72
2022-12-11T23:35:54.894Z,98190.94
2022-12-11T23:38:21.400Z,98186.03
2022-12-11T23:40:48.621Z,98181.66
2022-12-11T23:43:15.098Z,98175.38
2022-12-11T23:45:44.251Z,98194.25
2022-12-11T23:48:12.102Z,98189.69
2022-12-11T23:50:40.263Z,98190.88
2022-12-11T23:53:06.835Z,98180.06
2022-12-11T23:55:33.487Z,98186.13
2022-12-11T23:57:59.939Z,98178.69
